Pico Rivera, California
Current Conditions -  °F | °C
As of 8:53 AM on Friday 28 Nov 2014 (Local Time) from KFUL Reporting Station
Clear Clear  
Wind Chill: 19°   Ceiling: Unl
Heat Index: 19°   Visibility: 10mi
Dew Point: -2°   Wind: 3mph
Humidity: 24%   Direction: 110°ESE
Pressure: 29.99"   Gusts: NA
Location:  33.98°N, 118.08°W
Report Text: KFUL 281653Z 11003KT 10SM CLR 19/M02 A2999 RMK AO2 SLP156 T01941017
Loading
Personal Weather Stations






























Interactive Weather Map New forecast layout! Learn more

10-Day Weather Forecast

Advertisements
Track Severe Weather on mobile